Time;durP1;ratioP1;P1;durP2;ratioP2;P2;SDS_P1;SDS_P2;PMS_P1;PMS_P2;Temp;Humidity;BMP_temperature;BMP_pressure;BME280_temperature;BME280_humidity;BME280_pressure;Samples;Min_cycle;Max_cycle;Signal;HPM_P1;HPM_P2
2022/04/26 03:37:45;;;;;;;36.20;19.95;;;;;;;6.54;82.11;98259.81;5092215;28;20089;-69
2022/04/26 03:40:10;;;;;;;32.90;19.33;;;;;;;6.64;82.43;98264.44;5093752;28;20039;-68
2022/04/26 03:42:36;;;;;;;33.00;19.98;;;;;;;6.66;82.49;98270.41;5092007;28;20036;-69
2022/04/26 03:45:02;;;;;;;31.38;18.42;;;;;;;6.68;82.21;98270.16;5094390;28;20117;-69
2022/04/26 03:47:27;;;;;;;30.95;18.98;;;;;;;6.73;82.20;98272.84;5094209;28;20390;-69
2022/04/26 03:49:52;;;;;;;33.05;18.92;;;;;;;6.76;82.14;98276.94;5092431;28;20022;-69
2022/04/26 03:52:20;;;;;;;29.45;17.45;;;;;;;6.72;81.78;98276.69;5094208;28;20017;-68
2022/04/26 03:54:45;;;;;;;32.92;19.63;;;;;;;6.72;82.11;98284.88;5094401;28;20020;-69
2022/04/26 03:57:11;;;;;;;27.38;17.88;;;;;;;6.74;82.11;98284.59;5093315;28;20108;-68
2022/04/26 03:59:36;;;;;;;28.95;18.20;;;;;;;6.71;81.67;98277.78;5094348;28;20016;-69
2022/04/26 04:02:02;;;;;;;33.58;18.90;;;;;;;6.63;81.28;98275.63;5094532;28;20073;-69
2022/04/26 04:04:27;;;;;;;31.08;18.55;;;;;;;6.61;81.82;98278.59;5094051;28;20458;-69
2022/04/26 04:06:52;;;;;;;27.67;16.48;;;;;;;6.58;81.66;98281.06;5093861;28;20078;-69
2022/04/26 04:09:18;;;;;;;34.63;20.15;;;;;;;6.55;81.55;98291.44;5090673;28;20028;-69
2022/04/26 04:11:43;;;;;;;35.60;20.30;;;;;;;6.53;81.79;98292.78;5092384;28;20024;-68
2022/04/26 04:14:09;;;;;;;30.70;18.55;;;;;;;6.51;81.84;98284.88;5093500;28;20016;-69
2022/04/26 04:16:34;;;;;;;30.13;17.88;;;;;;;6.51;81.74;98292.25;5093817;28;20111;-69
2022/04/26 04:19:17;;;;;;;32.90;19.35;;;;;;;6.54;82.03;98303.41;5093423;28;20177;-68
2022/04/26 04:21:45;;;;;;;35.25;19.17;;;;;;;6.65;82.57;98303.41;5092547;28;20426;-68
2022/04/26 04:24:11;;;;;;;32.65;19.85;;;;;;;6.66;81.87;98300.41;5093487;28;20020;-69
2022/04/26 04:26:37;;;;;;;35.95;18.45;;;;;;;6.69;82.10;98304.50;5093194;28;20751;-69
2022/04/26 04:29:03;;;;;;;29.38;16.27;;;;;;;6.77;81.99;98301.19;5093573;28;20076;-69
2022/04/26 04:31:28;;;;;;;35.10;21.20;;;;;;;6.77;81.75;98300.41;5092114;28;20509;-69
2022/04/26 04:33:54;;;;;;;51.17;29.73;;;;;;;6.80;82.00;98308.03;5093541;28;20031;-68
2022/04/26 04:36:19;;;;;;;49.92;27.60;;;;;;;6.83;81.56;98305.56;5092190;28;20020;-69
2022/04/26 04:38:45;;;;;;;45.42;27.58;;;;;;;6.88;81.93;98318.38;5093191;28;20159;-69
2022/04/26 04:41:10;;;;;;;35.70;18.10;;;;;;;6.93;81.64;98317.53;5090700;28;20511;-69
2022/04/26 04:43:35;;;;;;;30.75;17.77;;;;;;;6.84;81.49;98318.09;5092896;28;20020;-68
2022/04/26 04:46:01;;;;;;;32.65;18.25;;;;;;;6.84;81.51;98315.38;5093021;28;20044;-68
2022/04/26 04:48:27;;;;;;;32.08;16.92;;;;;;;6.95;82.12;98318.06;5092354;28;20028;-68
2022/04/26 04:50:52;;;;;;;33.58;18.85;;;;;;;6.99;81.27;98321.88;5093154;28;20032;-69
2022/04/26 04:53:19;;;;;;;38.13;20.65;;;;;;;6.99;81.22;98324.63;5092909;28;20028;-69
2022/04/26 04:55:44;;;;;;;32.10;18.42;;;;;;;6.99;81.43;98324.63;5092996;28;20556;-69
2022/04/26 04:58:10;;;;;;;33.58;19.02;;;;;;;7.04;81.68;98327.34;5090335;28;20115;-69
2022/04/26 05:00:35;;;;;;;31.45;18.20;;;;;;;7.04;81.31;98326.50;5087781;28;20028;-67
2022/04/26 05:03:01;;;;;;;32.15;18.50;;;;;;;7.06;81.18;98337.94;5089844;28;20108;-67
2022/04/26 05:05:26;;;;;;;38.85;21.80;;;;;;;7.02;81.30;98334.16;5092465;28;20024;-67
2022/04/26 05:07:52;;;;;;;35.72;20.42;;;;;;;6.98;81.28;98331.16;5091472;28;20032;-67
2022/04/26 05:10:18;;;;;;;36.60;20.00;;;;;;;6.99;81.38;98340.97;5092190;28;20445;-67
2022/04/26 05:12:44;;;;;;;37.50;21.83;;;;;;;7.04;81.35;98340.13;5091014;28;20111;-67
2022/04/26 05:15:10;;;;;;;36.00;20.08;;;;;;;7.07;81.37;98345.88;5088585;28;20043;-68
2022/04/26 05:17:35;;;;;;;44.33;22.02;;;;;;;7.04;81.18;98343.69;5091552;28;20067;-67
2022/04/26 05:20:01;;;;;;;45.90;22.75;;;;;;;7.04;81.04;98340.97;5089302;28;20039;-68
2022/04/26 05:22:27;;;;;;;36.55;17.73;;;;;;;7.15;81.48;98348.00;5089341;28;20063;-67
2022/04/26 05:24:58;;;;;;;32.78;17.33;;;;;;;7.15;81.10;98353.47;5091161;28;20016;-68
2022/04/26 05:27:24;;;;;;;32.30;16.80;;;;;;;7.18;81.14;98346.66;5088296;28;20114;-68
2022/04/26 05:29:50;;;;;;;26.27;15.05;;;;;;;7.15;81.00;98353.47;5090978;28;20436;-68
2022/04/26 05:32:28;;;;;;;26.00;15.52;;;;;;;7.12;80.77;98358.66;5089294;28;20032;-68
2022/04/26 05:35:01;;;;;;;24.90;15.75;;;;;;;7.21;81.17;98361.66;5094479;28;20031;-67
2022/04/26 05:37:29;;;;;;;25.45;14.32;;;;;;;7.34;81.31;98369.25;5090410;28;20028;-68
2022/04/26 05:39:59;;;;;;;24.05;13.48;;;;;;;7.39;81.37;98368.41;5089317;28;20034;-67
2022/04/26 05:42:25;;;;;;;27.00;14.90;;;;;;;7.40;81.09;98364.59;5091518;28;20157;-67
2022/04/26 05:44:50;;;;;;;25.98;14.55;;;;;;;7.41;81.01;98372.53;5087794;28;20028;-67
2022/04/26 05:47:16;;;;;;;23.95;13.88;;;;;;;7.39;80.71;98363.78;5092736;28;20020;-67
2022/04/26 05:49:41;;;;;;;31.77;18.77;;;;;;;7.37;80.54;98367.88;5091366;28;20107;-68
2022/04/26 05:52:07;;;;;;;85.00;35.88;;;;;;;7.39;80.74;98369.25;5087683;28;20028;-68
2022/04/26 05:54:32;;;;;;;26.52;13.95;;;;;;;7.48;81.12;98374.94;5089871;28;20032;-67
2022/04/26 05:56:58;;;;;;;21.80;12.98;;;;;;;7.47;80.44;98380.69;5086999;28;20028;-68
2022/04/26 05:59:24;;;;;;;19.00;10.95;;;;;;;7.51;80.92;98382.56;5089295;28;20028;-68
2022/04/26 06:01:51;;;;;;;17.20;11.25;;;;;;;7.46;80.28;98377.13;5087658;28;20055;-68
2022/04/26 06:04:17;;;;;;;18.17;10.80;;;;;;;7.52;80.54;98370.56;5089832;28;20059;-68
2022/04/26 06:06:42;;;;;;;16.58;11.05;;;;;;;7.56;80.75;98379.00;5090235;28;20067;-67
2022/04/26 06:09:08;;;;;;;13.40;9.23;;;;;;;7.65;80.42;98369.16;5090362;28;20024;-68
2022/04/26 06:11:34;;;;;;;17.42;11.65;;;;;;;7.69;80.29;98370.22;5088593;28;20028;-68
2022/04/26 06:14:01;;;;;;;16.23;10.70;;;;;;;7.86;80.13;98374.53;5088595;28;20085;-68
2022/04/26 06:16:27;;;;;;;16.17;10.73;;;;;;;7.93;79.82;98372.31;5090437;28;20385;-67
2022/04/26 06:18:53;;;;;;;16.80;11.45;;;;;;;8.04;80.21;98364.88;5090423;28;20028;-67
2022/04/26 06:21:19;;;;;;;19.55;12.48;;;;;;;8.10;79.89;98365.66;5091837;28;20434;-67
2022/04/26 06:23:44;;;;;;;21.17;12.75;;;;;;;8.13;79.94;98365.94;5092437;28;20031;-67
2022/04/26 06:26:10;;;;;;;23.40;13.15;;;;;;;8.24;79.51;98365.84;5091568;28;20024;-68
2022/04/26 06:28:35;;;;;;;24.88;15.20;;;;;;;8.28;79.67;98367.75;5091231;28;20035;-67
2022/04/26 06:31:02;;;;;;;30.30;16.83;;;;;;;8.33;79.44;98364.97;5090565;28;20038;-68
2022/04/26 06:33:28;;;;;;;32.53;16.63;;;;;;;8.45;79.26;98358.31;5091314;28;20042;-68
2022/04/26 06:35:53;;;;;;;37.50;19.75;;;;;;;8.52;78.52;98366.25;5092205;28;20102;-67
2022/04/26 06:38:19;;;;;;;28.92;16.25;;;;;;;8.58;78.36;98367.81;5091452;28;20028;-68
2022/04/26 06:40:48;;;;;;;28.92;15.82;;;;;;;8.70;78.74;98378.41;5091475;28;20036;-67
2022/04/26 06:43:14;;;;;;;26.50;16.42;;;;;;;8.75;78.12;98370.16;5090592;28;20036;-68
2022/04/26 06:45:40;;;;;;;26.02;15.90;;;;;;;8.77;78.32;98371.50;5093986;28;20433;-67
2022/04/26 06:48:09;;;;;;;25.98;14.35;;;;;;;8.81;78.33;98371.72;5090982;28;20054;-68
2022/04/26 06:50:35;;;;;;;25.38;15.20;;;;;;;8.83;78.34;98372.25;5091272;28;20101;-67
2022/04/26 06:53:00;;;;;;;25.45;15.23;;;;;;;8.77;77.75;98368.75;5089154;28;20473;-67
2022/04/26 06:55:26;;;;;;;23.75;14.35;;;;;;;8.84;77.79;98381.28;5089757;28;20441;-70
2022/04/26 06:57:51;;;;;;;25.75;14.85;;;;;;;8.81;77.32;98381.88;5088385;28;20611;-70
2022/04/26 07:00:17;;;;;;;45.28;24.85;;;;;;;8.73;76.88;98386.03;5088065;28;20052;-70
2022/04/26 07:02:43;;;;;;;28.08;16.40;;;;;;;8.63;76.89;98393.22;5090773;28;20055;-70
2022/04/26 07:05:10;;;;;;;34.75;19.48;;;;;;;8.56;76.79;98391.91;5096637;28;20035;-70
2022/04/26 07:07:36;;;;;;;99.90;41.88;;;;;;;8.39;76.48;98390.34;5095615;28;20035;-69
2022/04/26 07:10:02;;;;;;;69.60;32.67;;;;;;;8.34;76.98;98393.94;5095629;28;20049;-71
2022/04/26 07:12:27;;;;;;;44.50;22.77;;;;;;;8.35;77.05;98386.53;5096532;28;21449;-70
2022/04/26 07:14:53;;;;;;;35.97;18.80;;;;;;;8.52;77.28;98399.03;5095880;28;20377;-68
2022/04/26 07:17:18;;;;;;;29.70;17.48;;;;;;;8.62;77.03;98393.47;5094368;28;20474;-68
2022/04/26 07:19:44;;;;;;;31.55;16.48;;;;;;;8.73;76.69;98399.72;5096470;28;20144;-68
2022/04/26 07:22:09;;;;;;;34.92;16.85;;;;;;;8.81;76.45;98396.34;5095068;28;20019;-67
2022/04/26 07:24:36;;;;;;;24.35;14.02;;;;;;;9.05;77.15;98396.41;5096050;28;20065;-67
2022/04/26 07:27:01;;;;;;;28.05;17.33;;;;;;;9.24;77.30;98393.75;5091849;28;20040;-67
2022/04/26 07:29:27;;;;;;;32.75;17.88;;;;;;;9.39;76.56;98400.19;5095968;28;20024;-68
2022/04/26 07:31:53;;;;;;;28.25;16.08;;;;;;;9.50;75.88;98403.63;5096315;28;20040;-68
2022/04/26 07:34:21;;;;;;;26.17;15.70;;;;;;;9.71;76.23;98400.69;5096078;28;20504;-66
2022/04/26 07:36:53;;;;;;;22.45;13.52;;;;;;;9.82;75.94;98404.91;5095965;28;20477;-67
2022/04/26 07:39:19;;;;;;;20.13;13.55;;;;;;;9.80;75.34;98405.22;5095288;28;20028;-68
2022/04/26 07:41:46;;;;;;;24.50;13.18;;;;;;;9.82;75.40;98403.00;5094998;28;20039;-69
2022/04/26 07:44:12;;;;;;;24.52;13.65;;;;;;;9.93;74.94;98409.16;5094547;28;20036;-70
2022/04/26 07:46:38;;;;;;;24.48;13.38;;;;;;;9.97;74.61;98409.41;5096928;27;20093;-68
2022/04/26 07:49:05;;;;;;;26.45;14.73;;;;;;;9.98;74.28;98413.78;5095652;28;20036;-67
2022/04/26 07:51:31;;;;;;;20.25;13.23;;;;;;;10.04;74.53;98417.25;5090232;28;20042;-68
2022/04/26 07:53:57;;;;;;;27.63;15.05;;;;;;;10.25;73.78;98417.81;5094287;28;20032;-67
2022/04/26 07:56:22;;;;;;;19.15;13.05;;;;;;;10.41;74.82;98411.00;5096055;28;20721;-68
2022/04/26 07:58:48;;;;;;;31.35;17.75;;;;;;;10.52;74.19;98421.84;5093067;28;20773;-69
2022/04/26 08:01:14;;;;;;;30.70;16.67;;;;;;;10.51;73.02;98422.94;5095411;28;20024;-64
2022/04/26 08:03:39;;;;;;;36.88;20.08;;;;;;;10.42;73.58;98429.09;5092079;28;20031;-66
2022/04/26 08:06:05;;;;;;;27.13;17.70;;;;;;;10.33;72.83;98425.38;5095336;28;20105;-67
2022/04/26 08:08:30;;;;;;;26.05;15.32;;;;;;;10.23;70.90;98425.50;5094375;28;20028;-68
2022/04/26 08:10:57;;;;;;;31.25;16.33;;;;;;;10.10;72.17;98438.00;5095888;28;20032;-68
2022/04/26 08:13:23;;;;;;;27.30;15.40;;;;;;;10.07;71.95;98438.59;5094612;28;20069;-68
2022/04/26 08:15:48;;;;;;;25.23;15.48;;;;;;;10.07;72.39;98444.88;5093326;28;20035;-67
2022/04/26 08:18:15;;;;;;;27.70;15.85;;;;;;;10.05;72.97;98446.28;5090388;28;20031;-67
2022/04/26 08:20:41;;;;;;;30.63;17.42;;;;;;;10.07;72.24;98444.06;5092247;28;20059;-67
2022/04/26 08:23:06;;;;;;;28.63;18.25;;;;;;;10.09;72.56;98450.88;5089584;28;20097;-68
2022/04/26 08:28:37;;;;;;;36.70;18.33;;;;;;;10.08;72.43;98457.47;5029674;28;20041;-68
2022/04/26 08:31:05;;;;;;;50.55;24.90;;;;;;;9.95;71.98;98459.00;5028224;28;20033;-68
2022/04/26 08:33:31;;;;;;;37.72;19.98;;;;;;;9.82;71.71;98460.53;5055127;28;20127;-68
2022/04/26 08:35:56;;;;;;;33.28;17.05;;;;;;;9.80;71.58;98459.16;5091239;28;20024;-68
2022/04/26 08:38:22;;;;;;;45.42;21.40;;;;;;;9.85;71.61;98459.09;5092068;28;20028;-69
2022/04/26 08:40:48;;;;;;;27.50;16.48;;;;;;;9.95;71.86;98464.47;5088565;28;20058;-69
2022/04/26 08:43:13;;;;;;;30.80;18.05;;;;;;;10.02;71.44;98463.31;5092063;28;20499;-66
2022/04/26 08:45:39;;;;;;;26.45;16.65;;;;;;;10.05;70.36;98460.78;5091834;28;20090;-68
2022/04/26 08:50:59;;;;;;;43.67;20.15;;;;;;;10.13;70.58;98471.13;5091828;28;20043;-67
2022/04/26 08:53:26;;;;;;;49.85;23.00;;;;;;;10.06;71.02;98473.38;5088698;28;20024;-66
2022/04/26 08:55:54;;;;;;;45.00;22.98;;;;;;;10.04;69.65;98480.28;5089945;28;20533;-68
2022/04/26 08:58:23;;;;;;;37.20;20.02;;;;;;;9.96;70.58;98473.53;5089946;28;20390;-68
2022/04/26 09:01:03;;;;;;;30.05;17.88;;;;;;;9.98;70.32;98471.31;5091815;28;20111;-69
2022/04/26 09:03:33;;;;;;;26.25;16.27;;;;;;;10.04;70.70;98472.84;5086935;28;20472;-69
2022/04/26 09:06:13;;;;;;;;;;;;;;;10.08;70.56;98476.66;5090913;28;20035;-69
2022/04/26 09:08:40;;;;;;;27.75;17.08;;;;;;;10.06;69.95;98473.38;5090742;28;19999;-68
2022/04/26 09:11:28;;;;;;;39.92;19.70;;;;;;;10.12;71.25;98480.44;5091689;28;20081;-68
2022/04/26 09:13:55;;;;;;;36.90;19.13;;;;;;;10.11;70.49;98483.50;5090433;28;20028;-67
2022/04/26 09:16:22;;;;;;;43.65;20.80;;;;;;;10.16;70.49;98486.16;5091302;28;20036;-69
2022/04/26 09:18:51;;;;;;;25.77;15.32;;;;;;;10.15;70.09;98492.75;5090186;28;20496;-67
2022/04/26 09:21:17;;;;;;;29.17;17.20;;;;;;;10.12;69.60;98485.13;5090763;28;20377;-68
2022/04/26 09:23:43;;;;;;;27.08;16.30;;;;;;;10.16;70.58;98482.59;5091163;28;20482;-68
2022/04/26 09:26:12;;;;;;;26.52;16.67;;;;;;;10.20;70.13;98486.38;5089239;28;20103;-68
2022/04/26 09:28:51;;;;;;;23.55;15.55;;;;;;;10.28;71.01;98485.75;5089209;28;20028;-67
2022/04/26 09:31:30;;;;;;;27.35;17.35;;;;;;;10.35;70.45;98485.38;5089826;28;20074;-67
2022/04/26 09:33:57;;;;;;;27.08;16.70;;;;;;;10.25;69.55;98486.31;5091636;28;20040;-68
2022/04/26 09:36:25;;;;;;;26.02;16.63;;;;;;;10.12;69.75;98479.63;5092588;28;20107;-69
2022/04/26 09:38:58;;;;;;;25.00;15.73;;;;;;;10.10;68.91;98484.59;5090321;28;20059;-69
2022/04/26 09:41:26;;;;;;;29.02;17.30;;;;;;;10.07;69.56;98488.72;5089923;28;20028;-70
2022/04/26 09:44:03;;;;;;;22.48;15.07;;;;;;;10.14;68.88;98488.38;5090108;28;20027;-69
2022/04/26 09:46:41;;;;;;;24.25;16.00;;;;;;;10.21;69.85;98483.34;5090879;28;20483;-69
2022/04/26 09:49:09;;;;;;;21.42;13.65;;;;;;;10.19;68.66;98487.50;5089559;28;20024;-71
2022/04/26 09:51:39;;;;;;;26.42;14.10;;;;;;;10.14;68.05;98485.66;5091058;28;20537;-69
2022/04/26 09:54:05;;;;;;;20.60;12.93;;;;;;;10.16;68.48;98485.34;5091780;28;20105;-70
2022/04/26 09:56:31;;;;;;;23.35;14.80;;;;;;;10.22;68.17;98484.16;5087419;28;20038;-71
2022/04/26 09:58:59;;;;;;;24.73;14.60;;;;;;;10.23;68.76;98481.13;5090781;28;20052;-70
2022/04/26 10:01:30;;;;;;;22.77;14.25;;;;;;;10.33;67.44;98484.84;5091265;28;20016;-70
2022/04/26 10:04:02;;;;;;;24.73;15.80;;;;;;;10.38;68.54;98482.88;5089429;28;20028;-68
2022/04/26 10:06:39;;;;;;;23.63;14.40;;;;;;;10.50;68.94;98489.88;5088125;28;20119;-68
2022/04/26 10:09:06;;;;;;;24.75;15.40;;;;;;;10.51;67.73;98488.75;5089524;28;20032;-69
2022/04/26 10:11:32;;;;;;;21.55;14.60;;;;;;;10.43;67.24;98485.56;5090906;28;20027;-69
2022/04/26 10:13:59;;;;;;;22.35;15.50;;;;;;;10.39;68.38;98484.50;5090272;28;20470;-69
2022/04/26 10:16:25;;;;;;;21.02;14.43;;;;;;;10.43;68.22;98485.56;5087175;28;20068;-68
2022/04/26 10:18:51;;;;;;;22.52;15.13;;;;;;;10.46;67.83;98481.44;5088449;28;20368;-68
2022/04/26 10:21:22;;;;;;;22.70;14.55;;;;;;;10.47;68.15;98491.28;5088552;28;20046;-70
2022/04/26 10:23:50;;;;;;;23.08;14.25;;;;;;;10.45;68.37;98490.75;5090997;28;20020;-69
2022/04/26 10:26:22;;;;;;;21.55;15.05;;;;;;;10.37;68.11;98483.97;5090404;28;20704;-69
2022/04/26 10:28:55;;;;;;;22.38;14.50;;;;;;;10.33;68.01;98487.59;5088513;28;20031;-68
2022/04/26 10:31:35;;;;;;;18.23;12.30;;;;;;;10.35;67.81;98494.44;5089726;28;20492;-71
2022/04/26 10:34:17;;;;;;;23.00;12.85;;;;;;;10.31;68.00;98487.91;5089134;28;20106;-71
2022/04/26 10:36:47;;;;;;;16.35;12.07;;;;;;;10.29;67.72;98495.59;5088257;28;20036;-69
2022/04/26 10:39:12;;;;;;;18.60;12.93;;;;;;;10.29;67.12;98495.59;5089213;28;20478;-70
2022/04/26 10:41:43;;;;;;;21.83;12.85;;;;;;;10.32;68.18;98497.75;5088764;28;20039;-69
2022/04/26 10:44:19;;;;;;;21.48;13.52;;;;;;;10.31;67.56;98487.06;5088435;28;20435;-69
2022/04/26 10:46:50;;;;;;;22.80;14.55;;;;;;;10.20;67.47;98489.13;5089064;28;20060;-69
2022/04/26 10:49:24;;;;;;;25.77;15.93;;;;;;;10.15;67.87;98494.66;5089696;28;20083;-68
2022/04/26 10:51:51;;;;;;;24.23;14.82;;;;;;;10.15;67.77;98487.28;5089832;28;20034;-72
2022/04/26 10:54:51;;;;;;;18.40;12.45;;;;;;;10.21;67.97;98493.50;5089322;28;20136;-69
2022/04/26 10:57:31;;;;;;;18.05;12.15;;;;;;;10.23;67.61;98486.59;5087777;28;20557;-71
2022/04/26 11:00:02;;;;;;;21.77;13.85;;;;;;;10.25;68.47;98497.28;5085970;28;20645;-69
2022/04/26 11:02:39;;;;;;;21.90;13.55;;;;;;;10.30;67.84;98491.75;5086394;28;20123;-70
2022/04/26 11:05:23;;;;;;;20.05;13.10;;;;;;;10.41;68.12;98493.25;5085295;28;20477;-72
2022/04/26 11:07:49;;;;;;;20.05;12.73;;;;;;;10.49;67.88;98497.28;5089223;28;20126;-70
2022/04/26 11:10:28;;;;;;;21.85;14.23;;;;;;;10.57;67.89;98502.13;5090030;28;20040;-70
2022/04/26 11:12:58;;;;;;;21.52;14.20;;;;;;;10.68;67.66;98496.47;5086816;28;20028;-69
2022/04/26 11:15:24;;;;;;;17.65;11.40;;;;;;;10.79;67.71;98499.91;5089527;28;20498;-71
2022/04/26 11:17:51;;;;;;;27.30;15.32;;;;;;;10.87;67.54;98505.53;5088101;28;20009;-71
2022/04/26 11:20:21;;;;;;;19.15;12.15;;;;;;;10.98;67.53;98494.41;5088992;28;20024;-70
2022/04/26 11:22:50;;;;;;;18.90;11.50;;;;;;;11.01;67.37;98497.38;5088107;28;20025;-70
2022/04/26 11:28:09;;;;;;;15.95;10.63;;;;;;;11.07;66.27;98497.28;5089145;28;20089;-70
2022/04/26 11:30:36;;;;;;;13.65;9.35;;;;;;;11.06;66.59;98490.97;5088935;28;20036;-70
2022/04/26 11:33:06;;;;;;;16.13;11.75;;;;;;;11.06;65.94;98501.16;5089645;28;20086;-70
2022/04/26 11:35:32;;;;;;;;;;;;;;;11.06;66.68;98493.72;5090296;28;20111;-71
2022/04/26 11:38:05;;;;;;;18.13;11.40;;;;;;;11.09;65.92;98500.56;5089105;28;20006;-70
2022/04/26 11:40:40;;;;;;;16.65;10.68;;;;;;;11.15;65.90;98502.91;5089994;28;20035;-70
2022/04/26 11:43:14;;;;;;;13.50;8.90;;;;;;;11.26;66.55;98506.28;5089844;28;20074;-70
2022/04/26 11:45:42;;;;;;;15.93;10.95;;;;;;;11.20;65.08;98510.25;5089994;28;20051;-71
2022/04/26 11:48:09;;;;;;;22.98;13.35;;;;;;;11.23;65.82;98501.41;5088894;28;20543;-71
2022/04/26 11:50:35;;;;;;;22.20;13.63;;;;;;;11.24;65.70;98499.50;5089694;28;20703;-72
2022/04/26 11:53:01;;;;;;;19.58;12.25;;;;;;;11.15;64.94;98500.16;5092249;28;20028;-73
2022/04/26 11:55:28;;;;;;;30.45;16.73;;;;;;;11.06;64.01;98496.47;5092851;28;20808;-71
2022/04/26 11:58:13;;;;;;;21.02;11.88;;;;;;;11.05;64.90;98499.50;5093614;28;20020;-70
2022/04/26 12:01:07;;;;;;;20.83;12.82;;;;;;;11.01;64.16;98508.34;5088090;28;20486;-70
2022/04/26 12:03:57;;;;;;;19.33;12.57;;;;;;;10.95;64.16;98511.47;5082423;28;20032;-69
2022/04/26 12:06:27;;;;;;;20.35;12.88;;;;;;;10.85;63.80;98510.50;5084748;28;20082;-71
2022/04/26 12:09:02;;;;;;;32.08;16.90;;;;;;;10.72;63.07;98509.31;5093754;28;20032;-71
2022/04/26 12:11:35;;;;;;;27.02;13.82;;;;;;;10.62;63.40;98501.22;5093532;28;20020;-73
2022/04/26 12:14:02;;;;;;;21.67;13.30;;;;;;;10.59;63.42;98504.56;5094007;28;20032;-73
2022/04/26 12:16:29;;;;;;;18.27;12.55;;;;;;;10.52;63.31;98512.31;5093476;28;20047;-69
2022/04/26 12:19:00;;;;;;;18.38;12.57;;;;;;;10.47;63.78;98512.38;5092549;28;20539;-69
2022/04/26 12:21:26;;;;;;;19.52;12.30;;;;;;;10.47;63.59;98506.91;5092792;28;20120;-69
2022/04/26 12:24:25;;;;;;;23.10;14.20;;;;;;;10.42;63.45;98510.53;5092645;28;20024;-70
2022/04/26 12:27:04;;;;;;;28.42;15.55;;;;;;;10.38;63.65;98507.56;5091220;28;20149;-71
2022/04/26 12:29:39;;;;;;;29.13;15.83;;;;;;;10.45;64.22;98503.63;5092655;28;20032;-71
2022/04/26 12:32:06;;;;;;;19.20;12.10;;;;;;;10.54;64.36;98504.63;5091116;28;20040;-71
2022/04/26 12:34:31;;;;;;;24.52;15.95;;;;;;;10.60;64.07;98505.38;5095577;28;20489;-71
2022/04/26 12:37:02;;;;;;;21.10;13.73;;;;;;;10.69;63.67;98500.84;5092824;28;20035;-71
2022/04/26 12:39:36;;;;;;;20.92;12.38;;;;;;;10.75;62.85;98504.34;5091840;28;20491;-71
2022/04/26 12:42:02;;;;;;;20.92;12.85;;;;;;;10.84;63.51;98508.03;5090280;28;20027;-70
2022/04/26 12:44:28;;;;;;;68.25;32.22;;;;;;;11.04;63.79;98497.88;5092089;28;20032;-70
2022/04/26 12:52:47;;;;;;;33.17;15.95;;;;;;;11.55;63.07;98498.97;5091476;28;20106;-70
2022/04/26 12:55:23;;;;;;;59.70;24.77;;;;;;;11.65;62.23;98492.47;5092049;28;20477;-68
2022/04/26 12:57:50;;;;;;;19.60;11.43;;;;;;;11.72;62.54;98493.72;5091067;28;20016;-68
2022/04/26 13:00:17;;;;;;;17.25;11.93;;;;;;;11.72;62.74;98490.13;5093863;28;20032;-69
2022/04/26 13:02:42;;;;;;;146.85;44.63;;;;;;;11.90;62.84;98492.00;5091068;28;20469;-69
2022/04/26 13:05:08;;;;;;;35.55;20.52;;;;;;;12.06;62.12;98489.78;5090232;28;20020;-69
2022/04/26 13:07:33;;;;;;;105.07;31.08;;;;;;;12.27;62.31;98488.56;5094362;28;20024;-69
2022/04/26 13:10:00;;;;;;;35.47;16.38;;;;;;;12.38;62.55;98483.66;5091490;28;20381;-69
2022/04/26 13:12:26;;;;;;;22.38;13.20;;;;;;;12.36;61.44;98489.47;5091091;28;20032;-70
2022/04/26 13:14:51;;;;;;;19.75;12.73;;;;;;;12.35;61.81;98482.34;5092813;28;20115;-70
2022/04/26 13:17:20;;;;;;;20.50;13.23;;;;;;;12.35;61.31;98485.09;5092879;28;20106;-71
2022/04/26 13:19:46;;;;;;;28.33;16.00;;;;;;;12.38;61.75;98481.75;5088460;28;20038;-69
2022/04/26 13:22:12;;;;;;;47.65;19.83;;;;;;;12.40;62.21;98492.41;5089371;28;20024;-70
2022/04/26 13:24:37;;;;;;;63.58;28.75;;;;;;;12.33;61.53;98488.13;5092910;28;20028;-70
2022/04/26 13:27:06;;;;;;;27.60;17.85;;;;;;;12.24;61.98;98491.94;5089122;28;20020;-70
2022/04/26 13:29:31;;;;;;;24.75;15.88;;;;;;;12.21;62.63;98485.91;5091565;28;21313;-70
2022/04/26 13:31:58;;;;;;;41.85;19.75;;;;;;;12.19;62.63;98488.16;5088483;28;20019;-71
2022/04/26 13:34:24;;;;;;;29.92;17.52;;;;;;;12.17;62.06;98484.91;5091252;28;20099;-71
2022/04/26 13:36:49;;;;;;;30.50;16.08;;;;;;;12.22;61.66;98489.50;5087734;28;20107;-68
2022/04/26 13:39:15;;;;;;;32.25;17.30;;;;;;;12.20;62.06;98486.25;5088641;28;20020;-66
2022/04/26 13:41:40;;;;;;;32.22;15.57;;;;;;;12.14;62.21;98485.50;5090141;28;20051;-66
2022/04/26 13:44:06;;;;;;;25.00;14.60;;;;;;;12.13;61.93;98489.38;5087594;28;20028;-69
2022/04/26 13:46:31;;;;;;;16.83;11.30;;;;;;;12.09;62.15;98485.59;5088743;28;20073;-69
2022/04/26 13:48:57;;;;;;;26.60;13.80;;;;;;;12.10;61.89;98480.94;5087840;28;20024;-68
2022/04/26 13:51:27;;;;;;;26.83;14.05;;;;;;;12.08;61.70;98480.44;5090165;28;20533;-68
2022/04/26 13:53:52;;;;;;;;;;;;;;;12.03;62.19;98481.31;5091174;28;20077;-68
2022/04/26 13:56:17;;;;;;;16.13;9.98;;;;;;;12.09;62.38;98482.84;5090747;28;19915;-68
2022/04/26 13:58:43;;;;;;;18.23;11.77;;;;;;;12.12;62.52;98487.75;5090629;28;20051;-68
2022/04/26 14:01:08;;;;;;;34.80;18.48;;;;;;;12.08;61.34;98481.22;5091327;28;20023;-67
2022/04/26 14:03:33;;;;;;;47.40;22.95;;;;;;;12.04;61.17;98494.78;5090950;28;20073;-68
2022/04/26 14:05:59;;;;;;;66.65;32.88;;;;;;;12.09;61.87;98485.59;5090617;28;20020;-69
2022/04/26 14:08:24;;;;;;;24.80;14.80;;;;;;;12.08;60.36;98491.44;5090170;28;20032;-68
2022/04/26 14:10:50;;;;;;;19.73;13.55;;;;;;;12.01;60.27;98491.84;5088533;28;20024;-68
2022/04/26 14:13:15;;;;;;;33.00;16.80;;;;;;;12.06;59.89;98489.78;5084660;28;20077;-68
2022/04/26 14:23:52;;;;;;;15.85;10.45;;;;;;;12.71;60.61;98491.75;5087359;28;20036;-69
2022/04/26 14:26:18;;;;;;;18.83;12.52;;;;;;;12.84;60.63;98490.91;5088690;28;20020;-69
2022/04/26 14:28:44;;;;;;;16.20;11.35;;;;;;;12.89;60.42;98484.44;5088430;28;20024;-69
2022/04/26 14:31:09;;;;;;;15.80;10.70;;;;;;;12.91;60.14;98485.78;5089722;28;20024;-69
2022/04/26 14:33:35;;;;;;;15.48;10.70;;;;;;;12.98;60.08;98488.09;5089545;28;20016;-68
2022/04/26 14:36:01;;;;;;;14.32;10.30;;;;;;;13.04;60.06;98486.06;5088946;28;20381;-69
2022/04/26 14:38:27;;;;;;;15.38;10.88;;;;;;;13.10;60.35;98476.53;5088249;28;20020;-69
2022/04/26 14:40:53;;;;;;;16.98;12.65;;;;;;;13.02;60.05;98489.09;5088457;28;20051;-69
2022/04/26 14:43:21;;;;;;;17.98;11.93;;;;;;;12.90;60.06;98478.66;5086475;28;20138;-70
2022/04/26 14:45:47;;;;;;;16.30;11.80;;;;;;;12.83;60.26;98485.72;5087791;28;20125;-71
2022/04/26 14:48:17;;;;;;;16.98;11.18;;;;;;;12.71;59.89;98483.50;5089213;28;20036;-71
2022/04/26 14:50:42;;;;;;;;;;;;;;;12.66;59.90;98487.19;5086333;28;20020;-69
2022/04/26 14:53:08;;;;;;;24.63;14.68;;;;;;;12.49;59.57;98488.63;5089697;28;19946;-70
2022/04/26 14:55:33;;;;;;;30.65;18.15;;;;;;;12.37;59.17;98474.59;5070965;28;20398;-69
2022/04/26 14:57:59;;;;;;;55.63;31.92;;;;;;;12.31;59.33;98484.88;5090620;28;20028;-68
2022/04/26 15:00:24;;;;;;;49.08;34.40;;;;;;;12.24;59.75;98475.44;5090184;28;20399;-68
2022/04/26 15:02:50;;;;;;;24.58;17.10;;;;;;;12.19;59.53;98476.38;5089754;28;20016;-69
2022/04/26 15:05:16;;;;;;;73.43;48.20;;;;;;;12.13;60.03;98475.63;5088352;28;20038;-69
2022/04/26 15:10:27;;;;;;;52.00;33.67;;;;;;;12.08;59.56;98485.94;5089459;28;20512;-69
2022/04/26 15:18:21;;;;;;;27.83;17.70;;;;;;;12.07;58.01;98482.34;5089976;28;20116;-69
2022/04/26 15:20:50;;;;;;;27.92;19.77;;;;;;;12.03;58.90;98486.81;5090840;28;20039;-69
2022/04/26 15:23:17;;;;;;;17.27;11.35;;;;;;;12.00;58.73;98491.00;5089436;28;20063;-69
2022/04/26 15:25:50;;;;;;;15.68;10.48;;;;;;;11.91;58.11;98484.56;5091263;28;20508;-70
2022/04/26 15:28:16;;;;;;;25.85;15.07;;;;;;;11.89;58.20;98493.13;5091977;28;20035;-70
2022/04/26 15:30:42;;;;;;;23.55;16.60;;;;;;;11.84;58.87;98484.13;5092956;28;20032;-70
2022/04/26 15:33:08;;;;;;;19.95;15.02;;;;;;;11.76;59.48;98485.66;5092947;28;20024;-70